createdAt,value
2017-06-04T00:00:39.307Z,0
2017-06-04T00:01:20.210Z,0
2017-06-04T00:02:01.100Z,0
2017-06-04T00:02:42.011Z,0
2017-06-04T00:03:23.014Z,0
2017-06-04T00:04:03.900Z,0
2017-06-04T00:04:44.803Z,0
2017-06-04T00:05:25.701Z,0
2017-06-04T00:06:06.663Z,0
2017-06-04T00:06:47.570Z,0
2017-06-04T00:07:28.473Z,0
2017-06-04T00:08:09.358Z,0
2017-06-04T00:08:50.253Z,0
2017-06-04T00:09:31.242Z,0
2017-06-04T00:10:12.106Z,0
2017-06-04T00:10:52.998Z,0
2017-06-04T00:11:33.885Z,0
2017-06-04T00:12:14.777Z,0
2017-06-04T00:12:55.676Z,0
2017-06-04T00:13:36.568Z,0
2017-06-04T00:14:17.468Z,0
2017-06-04T00:14:58.381Z,0
2017-06-04T00:15:39.282Z,0
2017-06-04T00:16:20.171Z,0
2017-06-04T00:17:01.065Z,0
2017-06-04T00:17:41.968Z,0
2017-06-04T00:18:22.866Z,0
2017-06-04T00:19:03.765Z,0
2017-06-04T00:19:44.662Z,0
2017-06-04T00:20:25.600Z,0
2017-06-04T00:21:06.505Z,0
2017-06-04T00:21:47.398Z,0
2017-06-04T00:22:28.311Z,0
2017-06-04T00:23:09.223Z,0
2017-06-04T00:23:50.126Z,0
2017-06-04T00:24:31.018Z,0
2017-06-04T00:25:11.923Z,0
2017-06-04T00:25:52.823Z,0
2017-06-04T00:26:33.715Z,0
2017-06-04T00:27:14.625Z,0
2017-06-04T00:27:55.528Z,0
2017-06-04T00:28:36.419Z,0
2017-06-04T00:29:17.325Z,0
2017-06-04T00:29:58.249Z,0
2017-06-04T00:30:39.127Z,0
2017-06-04T00:31:20.020Z,0
2017-06-04T00:32:00.925Z,0
2017-06-04T00:32:41.820Z,0
2017-06-04T00:33:22.705Z,0
2017-06-04T00:34:03.593Z,0
2017-06-04T00:34:44.492Z,0
2017-06-04T00:35:25.392Z,0
2017-06-04T00:36:06.285Z,0
2017-06-04T00:36:47.198Z,0
2017-06-04T00:37:28.106Z,0
2017-06-04T00:38:09.009Z,0
2017-06-04T00:38:49.903Z,0
2017-06-04T00:39:30.797Z,0
2017-06-04T00:40:11.698Z,0
2017-06-04T00:40:52.603Z,0
2017-06-04T00:41:33.504Z,0
2017-06-04T00:42:14.398Z,0
2017-06-04T00:42:55.301Z,0
2017-06-04T00:43:36.206Z,0
2017-06-04T00:44:17.149Z,0
2017-06-04T00:44:58.042Z,0
2017-06-04T00:45:38.934Z,0
2017-06-04T00:46:19.830Z,0
2017-06-04T00:47:00.726Z,0
2017-06-04T00:47:41.614Z,0
2017-06-04T00:48:22.509Z,0
2017-06-04T00:49:03.406Z,0
2017-06-04T00:49:44.297Z,0
2017-06-04T00:50:25.202Z,0
2017-06-04T00:51:06.143Z,0
2017-06-04T00:51:47.065Z,0
2017-06-04T00:52:27.977Z,0
2017-06-04T00:53:08.866Z,0
2017-06-04T00:53:49.762Z,0
2017-06-04T00:54:30.663Z,0
2017-06-04T00:55:11.553Z,0
2017-06-04T00:55:52.450Z,0
2017-06-04T00:56:33.341Z,0
2017-06-04T00:57:14.241Z,0
2017-06-04T00:57:55.148Z,0
2017-06-04T00:58:36.043Z,0
2017-06-04T00:59:16.922Z,0
2017-06-04T00:59:57.839Z,0
2017-06-04T01:00:38.711Z,0
2017-06-04T01:01:19.622Z,0
2017-06-04T01:02:00.522Z,0
2017-06-04T01:02:41.417Z,0
2017-06-04T01:03:22.326Z,0
2017-06-04T01:04:03.225Z,0
2017-06-04T01:04:44.121Z,0
2017-06-04T01:05:25.024Z,0
2017-06-04T01:06:05.930Z,0
2017-06-04T01:06:46.825Z,0
2017-06-04T01:07:27.718Z,0
2017-06-04T01:08:08.612Z,0
2017-06-04T01:08:49.509Z,0
2017-06-04T01:09:30.409Z,0
2017-06-04T01:10:11.307Z,0
2017-06-04T01:10:52.198Z,0
2017-06-04T01:11:33.098Z,0
2017-06-04T01:12:13.997Z,0
2017-06-04T01:12:54.888Z,0
2017-06-04T01:13:35.797Z,0
2017-06-04T01:14:16.689Z,0
2017-06-04T01:14:57.585Z,0
2017-06-04T01:15:38.482Z,0
2017-06-04T01:16:19.396Z,0
2017-06-04T01:17:00.293Z,0
2017-06-04T01:17:41.206Z,0
2017-06-04T01:18:22.097Z,0
2017-06-04T01:19:02.998Z,0
2017-06-04T01:19:43.891Z,0
2017-06-04T01:20:24.794Z,0
2017-06-04T01:21:05.681Z,0
2017-06-04T01:21:46.605Z,0
2017-06-04T01:22:27.497Z,0
2017-06-04T01:23:08.394Z,0
2017-06-04T01:23:49.288Z,0
2017-06-04T01:24:30.177Z,0
2017-06-04T01:25:11.079Z,0
2017-06-04T01:25:51.973Z,0
2017-06-04T01:26:32.863Z,0
2017-06-04T01:27:13.763Z,0
2017-06-04T01:27:54.661Z,0
2017-06-04T01:28:35.560Z,0
2017-06-04T01:29:16.463Z,0
2017-06-04T01:29:57.350Z,0
2017-06-04T01:30:38.273Z,0
2017-06-04T01:31:19.173Z,0
2017-06-04T01:32:00.074Z,0
2017-06-04T01:32:40.958Z,0
2017-06-04T01:33:21.855Z,0
2017-06-04T01:34:02.742Z,0
2017-06-04T01:34:43.649Z,0
2017-06-04T01:35:24.545Z,0
2017-06-04T01:36:05.448Z,0
2017-06-04T01:36:46.344Z,0
2017-06-04T01:37:27.249Z,0
2017-06-04T01:38:08.145Z,0
2017-06-04T01:38:49.037Z,0
2017-06-04T01:39:29.931Z,0
2017-06-04T01:40:10.820Z,0
2017-06-04T01:40:51.710Z,0
2017-06-04T01:41:32.598Z,0
2017-06-04T01:42:13.496Z,0
2017-06-04T01:42:54.397Z,0
2017-06-04T01:43:35.292Z,0
2017-06-04T01:44:16.198Z,0
2017-06-04T01:44:57.091Z,0
2017-06-04T01:45:37.990Z,0
2017-06-04T01:46:18.911Z,0
2017-06-04T01:46:59.805Z,0
2017-06-04T01:47:40.697Z,0
2017-06-04T01:48:21.586Z,0
2017-06-04T01:49:02.473Z,0
2017-06-04T01:49:43.359Z,0
2017-06-04T01:50:24.257Z,0
2017-06-04T01:51:05.164Z,0
2017-06-04T01:51:46.044Z,0
2017-06-04T01:52:26.935Z,0
2017-06-04T01:53:07.834Z,0
2017-06-04T01:53:48.754Z,0
2017-06-04T01:54:29.656Z,0
2017-06-04T01:55:10.542Z,0
2017-06-04T01:55:51.435Z,0
2017-06-04T01:56:32.314Z,0
2017-06-04T01:57:13.206Z,0
2017-06-04T01:57:54.088Z,0
2017-06-04T01:58:34.980Z,0
2017-06-04T01:59:15.870Z,0
2017-06-04T01:59:56.769Z,0
2017-06-04T02:00:37.667Z,0
2017-06-04T02:01:18.581Z,0
2017-06-04T02:01:59.477Z,0
2017-06-04T02:02:40.394Z,0
2017-06-04T02:03:21.298Z,0
2017-06-04T02:04:02.179Z,0
2017-06-04T02:04:43.067Z,0
2017-06-04T02:05:23.975Z,0
2017-06-04T02:06:04.862Z,0
2017-06-04T02:06:45.752Z,0
2017-06-04T02:07:26.643Z,0
2017-06-04T02:08:07.533Z,0
2017-06-04T02:08:48.417Z,0
2017-06-04T02:09:29.312Z,0
2017-06-04T02:10:10.200Z,0
2017-06-04T02:10:51.104Z,0
2017-06-04T02:11:31.985Z,0
2017-06-04T02:12:12.873Z,0
2017-06-04T02:12:53.766Z,0
2017-06-04T02:13:34.663Z,0
2017-06-04T02:14:15.580Z,0
2017-06-04T02:14:56.475Z,0
2017-06-04T02:15:37.411Z,0
2017-06-04T02:16:18.259Z,0
2017-06-04T02:16:59.154Z,0
2017-06-04T02:17:40.054Z,0
2017-06-04T02:18:20.936Z,0
2017-06-04T02:19:01.827Z,0
2017-06-04T02:19:42.725Z,0
2017-06-04T02:20:23.602Z,0
2017-06-04T02:21:04.519Z,0
2017-06-04T02:21:45.403Z,0
2017-06-04T02:22:26.283Z,0
2017-06-04T02:23:07.176Z,0
2017-06-04T02:23:48.075Z,0
2017-06-04T02:24:28.948Z,0
2017-06-04T02:25:09.830Z,0
2017-06-04T02:25:50.769Z,0
2017-06-04T02:26:31.645Z,0
2017-06-04T02:27:12.551Z,0
2017-06-04T02:27:53.430Z,0
2017-06-04T02:28:34.304Z,0
2017-06-04T02:29:15.200Z,0
2017-06-04T02:29:56.098Z,0
2017-06-04T02:30:37.003Z,0
2017-06-04T02:31:17.899Z,0
2017-06-04T02:31:58.799Z,0
2017-06-04T02:32:39.707Z,0
2017-06-04T02:33:20.596Z,0
2017-06-04T02:34:01.488Z,0
2017-06-04T02:34:42.425Z,0
2017-06-04T02:35:23.283Z,0
2017-06-04T02:36:04.189Z,0
2017-06-04T02:36:45.088Z,0
2017-06-04T02:37:25.985Z,0
2017-06-04T02:38:06.901Z,0
2017-06-04T02:38:47.792Z,0
2017-06-04T02:39:28.683Z,0
2017-06-04T02:40:09.576Z,0
2017-06-04T02:40:50.470Z,0
2017-06-04T02:41:31.378Z,0
2017-06-04T02:42:12.264Z,0
2017-06-04T02:42:53.179Z,0
2017-06-04T02:43:34.076Z,0
2017-06-04T02:44:14.994Z,0
2017-06-04T02:44:55.891Z,0
2017-06-04T02:45:36.789Z,0
2017-06-04T02:47:56.097Z,0
2017-06-04T02:48:36.986Z,0
2017-06-04T02:49:17.876Z,0
2017-06-04T02:49:58.767Z,0
2017-06-04T02:50:39.657Z,0
2017-06-04T02:51:20.540Z,0
2017-06-04T02:52:01.435Z,0
2017-06-04T02:52:42.329Z,0
2017-06-04T02:53:23.240Z,5
2017-06-04T02:54:04.130Z,5
2017-06-04T02:54:45.013Z,5
2017-06-04T02:55:25.910Z,5
2017-06-04T02:56:06.787Z,5
2017-06-04T02:56:47.682Z,5
2017-06-04T02:57:28.585Z,5
2017-06-04T02:58:09.462Z,5
2017-06-04T02:58:50.359Z,5
2017-06-04T02:59:31.246Z,5
2017-06-04T03:00:12.151Z,5
2017-06-04T03:00:53.043Z,5
2017-06-04T03:01:34.071Z,5
2017-06-04T03:02:14.965Z,5
2017-06-04T03:02:55.866Z,5
2017-06-04T03:03:36.764Z,5
2017-06-04T03:04:17.658Z,5
2017-06-04T03:04:58.549Z,5
2017-06-04T03:05:39.444Z,5
2017-06-04T03:06:20.338Z,10
2017-06-04T03:07:01.234Z,10
2017-06-04T03:07:42.124Z,10
2017-06-04T03:08:23.023Z,10
2017-06-04T03:09:03.918Z,10
2017-06-04T03:09:44.811Z,10
2017-06-04T03:10:25.708Z,10
2017-06-04T03:11:06.616Z,10
2017-06-04T03:11:47.539Z,10
2017-06-04T03:12:28.428Z,10
2017-06-04T03:13:09.317Z,10
2017-06-04T03:13:50.206Z,10
2017-06-04T03:14:31.093Z,10
2017-06-04T03:15:11.984Z,10
2017-06-04T03:15:52.878Z,15
2017-06-04T03:16:33.767Z,15
2017-06-04T03:17:14.650Z,15
2017-06-04T03:17:55.545Z,15
2017-06-04T03:18:36.438Z,15
2017-06-04T03:19:17.346Z,15
2017-06-04T03:19:58.237Z,15
2017-06-04T03:20:39.138Z,15
2017-06-04T03:21:20.040Z,15
2017-06-04T03:22:00.932Z,15
2017-06-04T03:22:41.834Z,15
2017-06-04T03:23:22.781Z,15
2017-06-04T03:24:03.680Z,15
2017-06-04T03:24:44.586Z,15
2017-06-04T03:25:25.555Z,15
2017-06-04T03:26:06.481Z,15
2017-06-04T03:26:47.373Z,15
2017-06-04T03:27:28.270Z,15
2017-06-04T03:28:09.170Z,15
2017-06-04T03:28:50.064Z,15
2017-06-04T03:29:30.955Z,15
2017-06-04T03:30:11.848Z,15
2017-06-04T03:30:52.752Z,20
2017-06-04T03:31:33.649Z,20
2017-06-04T03:32:14.542Z,20
2017-06-04T03:32:55.433Z,20
2017-06-04T03:33:36.329Z,20
2017-06-04T03:34:17.214Z,20
2017-06-04T03:34:58.114Z,20
2017-06-04T03:35:39.005Z,20
2017-06-04T03:36:19.889Z,20
2017-06-04T03:37:00.792Z,25
2017-06-04T03:37:41.694Z,25
2017-06-04T03:38:22.586Z,25
2017-06-04T03:39:03.474Z,25
2017-06-04T03:39:44.361Z,25
2017-06-04T03:40:25.262Z,25
2017-06-04T03:41:06.160Z,25
2017-06-04T03:41:47.052Z,25
2017-06-04T03:42:27.940Z,25
2017-06-04T03:43:08.873Z,30
2017-06-04T03:43:49.762Z,30
2017-06-04T03:44:30.662Z,30
2017-06-04T03:45:11.556Z,30
2017-06-04T03:45:52.460Z,30
2017-06-04T03:46:33.346Z,30
2017-06-04T03:47:14.244Z,30
2017-06-04T03:47:55.136Z,30
2017-06-04T03:48:36.057Z,30
2017-06-04T03:49:16.948Z,30
2017-06-04T03:49:57.847Z,30
2017-06-04T03:50:38.747Z,30
2017-06-04T03:51:19.652Z,30
2017-06-04T03:52:00.550Z,30
2017-06-04T03:52:41.453Z,35
2017-06-04T03:53:22.346Z,35
2017-06-04T03:54:03.240Z,35
2017-06-04T03:54:44.150Z,35
2017-06-04T03:55:25.041Z,35
2017-06-04T03:56:05.933Z,35
2017-06-04T03:56:46.830Z,35
2017-06-04T03:57:27.724Z,35
2017-06-04T03:58:08.621Z,40
2017-06-04T03:58:49.524Z,40
2017-06-04T03:59:30.428Z,40
2017-06-04T04:00:11.321Z,45
2017-06-04T04:00:52.229Z,45
2017-06-04T04:01:33.121Z,45
2017-06-04T04:02:14.022Z,50
2017-06-04T04:02:54.924Z,50
2017-06-04T04:03:35.814Z,50
2017-06-04T04:04:16.705Z,50
2017-06-04T04:04:57.606Z,50
2017-06-04T04:05:38.502Z,55
2017-06-04T04:06:19.400Z,55
2017-06-04T04:07:00.292Z,55
2017-06-04T04:07:41.174Z,55
2017-06-04T04:08:22.074Z,55
2017-06-04T04:09:02.967Z,50
2017-06-04T04:09:43.854Z,50
2017-06-04T04:10:24.749Z,50
2017-06-04T04:11:05.665Z,50
2017-06-04T04:11:46.558Z,50
2017-06-04T04:12:27.454Z,50
2017-06-04T04:13:08.347Z,50
2017-06-04T04:13:49.250Z,50
2017-06-04T04:14:30.133Z,50
2017-06-04T04:15:11.028Z,50
2017-06-04T04:15:51.917Z,50
2017-06-04T04:16:32.840Z,55
2017-06-04T04:17:13.801Z,55
2017-06-04T04:17:54.623Z,55
2017-06-04T04:18:35.510Z,60
2017-06-04T04:19:16.411Z,60
2017-06-04T04:19:57.298Z,60
2017-06-04T04:20:38.203Z,65
2017-06-04T04:21:19.086Z,65
2017-06-04T04:21:59.973Z,65
2017-06-04T04:22:40.876Z,65
2017-06-04T04:23:21.797Z,65
2017-06-04T04:24:02.695Z,70
2017-06-04T04:24:43.612Z,70
2017-06-04T04:25:24.504Z,70
2017-06-04T04:26:05.397Z,65
2017-06-04T04:26:46.303Z,65
2017-06-04T04:27:27.268Z,65
2017-06-04T04:28:08.154Z,65
2017-06-04T04:28:49.040Z,65
2017-06-04T04:29:29.941Z,65
2017-06-04T04:30:10.833Z,65
2017-06-04T04:30:51.739Z,65
2017-06-04T04:31:32.652Z,65
2017-06-04T04:32:13.548Z,65
2017-06-04T04:32:54.440Z,65
2017-06-04T04:33:35.331Z,70
2017-06-04T04:34:16.224Z,70
2017-06-04T04:34:57.114Z,70
2017-06-04T04:35:38.001Z,75
2017-06-04T04:36:18.909Z,75
2017-06-04T04:36:59.810Z,75
2017-06-04T04:37:40.708Z,75
2017-06-04T04:38:21.602Z,75
2017-06-04T04:39:02.496Z,75
2017-06-04T04:39:43.398Z,75
2017-06-04T04:40:24.288Z,75
2017-06-04T04:41:05.174Z,75
2017-06-04T04:41:46.074Z,70
2017-06-04T04:42:26.959Z,65
2017-06-04T04:43:07.846Z,60
2017-06-04T04:43:48.751Z,55
2017-06-04T04:44:29.636Z,55
2017-06-04T04:45:10.517Z,50
2017-06-04T04:45:51.419Z,50
2017-06-04T04:46:32.338Z,50
2017-06-04T04:47:13.255Z,50
2017-06-04T04:47:54.143Z,50
2017-06-04T04:48:35.028Z,50
2017-06-04T04:49:15.922Z,50
2017-06-04T04:49:56.817Z,50
2017-06-04T04:50:37.709Z,45
2017-06-04T04:51:18.603Z,45
2017-06-04T04:51:59.508Z,45
2017-06-04T04:52:40.430Z,50
2017-06-04T04:53:21.303Z,50
2017-06-04T04:54:02.202Z,45
2017-06-04T04:54:43.095Z,45
2017-06-04T04:55:23.983Z,45
2017-06-04T04:56:04.872Z,45
2017-06-04T04:56:45.811Z,45
2017-06-04T04:57:26.696Z,45
2017-06-04T04:58:07.597Z,45
2017-06-04T04:58:48.488Z,45
2017-06-04T04:59:29.393Z,45
2017-06-04T05:00:10.276Z,45
2017-06-04T05:00:51.167Z,45
2017-06-04T05:01:32.074Z,45
2017-06-04T05:02:12.965Z,50
2017-06-04T05:02:53.897Z,50
2017-06-04T05:03:34.786Z,50
2017-06-04T05:04:15.679Z,50
2017-06-04T05:04:56.576Z,50
2017-06-04T05:05:37.456Z,50
2017-06-04T05:06:18.351Z,50
2017-06-04T05:06:59.232Z,50
2017-06-04T05:07:40.124Z,55
2017-06-04T05:08:21.031Z,55
2017-06-04T05:09:01.925Z,55
2017-06-04T05:09:42.821Z,55
2017-06-04T05:10:23.758Z,55
2017-06-04T05:11:04.644Z,60
2017-06-04T05:11:45.555Z,60
2017-06-04T05:12:26.458Z,60
2017-06-04T05:13:07.355Z,60
2017-06-04T05:13:48.253Z,60
2017-06-04T05:14:29.137Z,65
2017-06-04T05:15:10.120Z,65
2017-06-04T05:15:51.012Z,70
2017-06-04T05:16:31.913Z,70
2017-06-04T05:17:12.831Z,75
2017-06-04T05:17:53.705Z,80
2017-06-04T05:18:34.593Z,80
2017-06-04T05:19:15.482Z,85
2017-06-04T05:19:56.385Z,85
2017-06-04T05:20:37.278Z,85
2017-06-04T05:21:18.161Z,85
2017-06-04T05:21:59.063Z,85
2017-06-04T05:22:39.969Z,85
2017-06-04T05:23:20.938Z,85
2017-06-04T05:24:01.844Z,85
2017-06-04T05:24:42.723Z,85
2017-06-04T05:25:23.611Z,85
2017-06-04T05:26:04.498Z,85
2017-06-04T05:26:45.396Z,85
2017-06-04T05:27:26.291Z,85
2017-06-04T05:28:07.195Z,85
2017-06-04T05:28:48.079Z,85
2017-06-04T05:29:28.971Z,85
2017-06-04T05:30:09.868Z,85
2017-06-04T05:30:50.755Z,85
2017-06-04T05:31:31.655Z,85
2017-06-04T05:32:12.538Z,85
2017-06-04T05:32:53.430Z,85
2017-06-04T05:33:34.317Z,80
2017-06-04T05:34:15.217Z,80
2017-06-04T05:34:56.100Z,80
2017-06-04T05:35:37.015Z,75
2017-06-04T05:36:17.887Z,70
2017-06-04T05:36:58.784Z,70
2017-06-04T05:37:39.687Z,65
2017-06-04T05:38:20.586Z,65
2017-06-04T05:39:01.485Z,65
2017-06-04T05:39:42.370Z,65
2017-06-04T05:40:23.268Z,65
2017-06-04T05:41:04.166Z,65
2017-06-04T05:41:45.055Z,70
2017-06-04T05:42:25.941Z,75
2017-06-04T05:43:06.829Z,80
2017-06-04T05:43:47.720Z,80
2017-06-04T05:44:28.619Z,80
2017-06-04T05:45:09.512Z,75
2017-06-04T05:45:50.429Z,75
2017-06-04T05:46:31.300Z,70
2017-06-04T05:47:12.188Z,65
2017-06-04T05:47:53.090Z,65
2017-06-04T05:48:33.979Z,65
2017-06-04T05:49:14.915Z,65
2017-06-04T05:49:55.802Z,65
2017-06-04T05:50:36.699Z,70
2017-06-04T05:52:56.993Z,70
2017-06-04T05:53:37.885Z,75
2017-06-04T05:54:18.783Z,75
2017-06-04T05:54:59.669Z,75
2017-06-04T05:55:40.576Z,75
2017-06-04T05:56:21.473Z,80
2017-06-04T05:57:02.370Z,80
2017-06-04T05:57:43.251Z,90
2017-06-04T05:58:24.144Z,95
2017-06-04T05:59:05.048Z,95
2017-06-04T05:59:45.933Z,100
2017-06-04T06:00:26.834Z,105
2017-06-04T06:01:07.737Z,105
2017-06-04T06:01:48.635Z,105
2017-06-04T06:02:29.538Z,105
2017-06-04T06:03:10.432Z,105
2017-06-04T06:03:51.330Z,105
2017-06-04T06:04:32.225Z,105
2017-06-04T06:05:13.114Z,105
2017-06-04T06:05:54.011Z,105
2017-06-04T06:06:34.912Z,105
2017-06-04T06:07:15.803Z,110
2017-06-04T06:07:56.685Z,110
2017-06-04T06:08:37.565Z,110
2017-06-04T06:09:18.446Z,105
2017-06-04T06:09:59.364Z,105
2017-06-04T06:10:40.258Z,100
2017-06-04T06:11:21.150Z,100
2017-06-04T06:12:02.039Z,95
2017-06-04T06:12:42.935Z,95
2017-06-04T06:13:23.846Z,95
2017-06-04T06:14:04.739Z,95
2017-06-04T06:14:45.623Z,95
2017-06-04T06:15:26.526Z,105
2017-06-04T06:16:07.415Z,100
2017-06-04T06:16:48.316Z,105
2017-06-04T06:17:29.205Z,105
2017-06-04T06:18:10.107Z,110
2017-06-04T06:18:50.997Z,110
2017-06-04T06:19:31.882Z,110
2017-06-04T06:20:12.777Z,110
2017-06-04T06:20:53.670Z,110
2017-06-04T06:21:34.561Z,105
2017-06-04T06:22:15.493Z,105
2017-06-04T06:22:56.391Z,110
2017-06-04T06:23:37.280Z,110
2017-06-04T06:24:18.188Z,110
2017-06-04T06:24:59.079Z,105
2017-06-04T06:25:39.979Z,105
2017-06-04T06:26:20.883Z,105
2017-06-04T06:27:01.775Z,105
2017-06-04T06:27:42.683Z,105
2017-06-04T06:28:23.594Z,105
2017-06-04T06:29:04.478Z,105
2017-06-04T06:29:45.373Z,100
2017-06-04T06:30:26.273Z,100
2017-06-04T06:31:07.158Z,95
2017-06-04T06:31:48.056Z,90
2017-06-04T06:32:28.943Z,90
2017-06-04T06:33:09.830Z,90
2017-06-04T06:33:50.725Z,85
2017-06-04T06:34:31.620Z,85
2017-06-04T06:35:12.525Z,90
2017-06-04T06:35:53.414Z,90
2017-06-04T06:36:34.308Z,90
2017-06-04T06:37:15.204Z,90
2017-06-04T06:37:56.099Z,90
2017-06-04T06:38:36.987Z,90
2017-06-04T06:39:17.891Z,90
2017-06-04T06:39:58.781Z,90
2017-06-04T06:40:39.680Z,95
2017-06-04T06:41:20.567Z,95
2017-06-04T06:42:01.463Z,95
2017-06-04T06:42:42.372Z,95
2017-06-04T06:43:23.273Z,95
2017-06-04T06:44:04.173Z,85
2017-06-04T06:44:45.063Z,75
2017-06-04T06:45:25.952Z,80
2017-06-04T06:46:06.870Z,75
2017-06-04T06:46:47.763Z,65
2017-06-04T06:47:28.659Z,65
2017-06-04T06:48:09.568Z,70
2017-06-04T06:48:50.466Z,80
2017-06-04T06:49:31.357Z,85
2017-06-04T06:50:12.249Z,90
2017-06-04T06:50:53.143Z,85
2017-06-04T06:51:34.048Z,80
2017-06-04T06:52:14.940Z,80
2017-06-04T06:52:55.828Z,75
2017-06-04T06:53:36.713Z,75
2017-06-04T06:54:17.605Z,75
2017-06-04T06:54:58.497Z,80
2017-06-04T06:55:39.393Z,90
2017-06-04T06:56:20.318Z,90
2017-06-04T06:57:01.222Z,90
2017-06-04T06:57:42.113Z,85
2017-06-04T06:58:22.997Z,85
2017-06-04T06:59:03.882Z,75
2017-06-04T06:59:44.776Z,75
2017-06-04T07:00:25.663Z,80
2017-06-04T07:01:06.568Z,80
2017-06-04T07:01:47.460Z,75
2017-06-04T07:02:28.356Z,75
2017-06-04T07:03:09.252Z,80
2017-06-04T07:03:50.163Z,85
2017-06-04T07:04:31.067Z,90
2017-06-04T07:05:11.963Z,100
2017-06-04T07:05:52.904Z,120
2017-06-04T07:06:33.800Z,125
2017-06-04T07:07:14.701Z,125
2017-06-04T07:07:55.582Z,120
2017-06-04T07:08:36.477Z,105
2017-06-04T07:09:17.374Z,105
2017-06-04T07:09:58.269Z,110
2017-06-04T07:10:39.176Z,110
2017-06-04T07:11:20.074Z,110
2017-06-04T07:12:00.968Z,110
2017-06-04T07:12:41.860Z,110
2017-06-04T07:13:22.752Z,110
2017-06-04T07:14:03.651Z,115
2017-06-04T07:14:44.551Z,130
2017-06-04T07:15:25.441Z,150
2017-06-04T07:16:06.339Z,160
2017-06-04T07:16:47.231Z,170
2017-06-04T07:17:28.134Z,175
2017-06-04T07:18:09.024Z,180
2017-06-04T07:18:49.936Z,185
2017-06-04T07:19:30.824Z,180
2017-06-04T07:20:11.724Z,180
2017-06-04T07:20:52.628Z,180
2017-06-04T07:21:33.530Z,180
2017-06-04T07:22:14.426Z,180
2017-06-04T07:22:55.324Z,180
2017-06-04T07:23:36.219Z,170
2017-06-04T07:24:17.102Z,165
2017-06-04T07:24:58.002Z,155
2017-06-04T07:25:38.893Z,150
2017-06-04T07:26:19.825Z,145
2017-06-04T07:27:00.721Z,130
2017-06-04T07:27:41.610Z,125
2017-06-04T07:28:22.501Z,115
2017-06-04T07:29:03.392Z,115
2017-06-04T07:29:44.285Z,120
2017-06-04T07:30:25.185Z,125
2017-06-04T07:31:06.082Z,115
2017-06-04T07:31:46.986Z,125
2017-06-04T07:32:27.884Z,135
2017-06-04T07:33:08.768Z,140
2017-06-04T07:33:49.676Z,145
2017-06-04T07:34:30.558Z,145
2017-06-04T07:35:11.438Z,145
2017-06-04T07:35:52.339Z,150
2017-06-04T07:36:33.239Z,140
2017-06-04T07:37:14.139Z,130
2017-06-04T07:37:55.015Z,120
2017-06-04T07:38:35.919Z,110
2017-06-04T07:39:16.799Z,105
2017-06-04T07:39:57.695Z,105
2017-06-04T07:40:38.577Z,105
2017-06-04T07:41:19.455Z,110
2017-06-04T07:42:00.354Z,115
2017-06-04T07:42:41.249Z,125
2017-06-04T07:43:22.125Z,135
2017-06-04T07:44:03.008Z,140
2017-06-04T07:44:43.900Z,145
2017-06-04T07:45:24.788Z,145
2017-06-04T07:46:05.678Z,150
2017-06-04T07:46:46.597Z,150
2017-06-04T07:47:27.505Z,150
2017-06-04T07:48:08.382Z,150
2017-06-04T07:48:49.279Z,155
2017-06-04T07:49:30.166Z,160
2017-06-04T07:50:11.038Z,160
2017-06-04T07:50:51.926Z,160
2017-06-04T07:51:32.804Z,165
2017-06-04T07:52:13.679Z,165
2017-06-04T07:52:54.581Z,165
2017-06-04T07:53:35.483Z,165
2017-06-04T07:54:16.377Z,165
2017-06-04T07:54:57.260Z,160
2017-06-04T07:55:38.140Z,160
2017-06-04T07:56:19.035Z,155
2017-06-04T07:56:59.916Z,150
2017-06-04T07:57:40.816Z,150
2017-06-04T07:58:21.719Z,150
2017-06-04T07:59:02.611Z,160
2017-06-04T07:59:43.495Z,150
2017-06-04T08:00:24.390Z,140
2017-06-04T08:01:05.288Z,120
2017-06-04T08:01:46.194Z,100
2017-06-04T08:02:27.070Z,70
2017-06-04T08:03:07.978Z,50
2017-06-04T08:03:48.873Z,45
2017-06-04T08:04:29.765Z,50
2017-06-04T08:05:10.659Z,45
2017-06-04T08:05:51.554Z,45
2017-06-04T08:06:32.453Z,45
2017-06-04T08:07:13.354Z,45
2017-06-04T08:07:54.301Z,40
2017-06-04T08:08:35.182Z,40
2017-06-04T08:09:16.062Z,45
2017-06-04T08:09:56.955Z,50
2017-06-04T08:10:37.857Z,55
2017-06-04T08:11:18.750Z,60
2017-06-04T08:11:59.652Z,60
2017-06-04T08:12:40.546Z,75
2017-06-04T08:13:21.430Z,95
2017-06-04T08:14:02.309Z,110
2017-06-04T08:14:43.187Z,125
2017-06-04T08:15:24.073Z,140
2017-06-04T08:16:04.948Z,145
2017-06-04T08:16:45.831Z,155
2017-06-04T08:17:26.737Z,160
2017-06-04T08:18:07.623Z,170
2017-06-04T08:18:48.537Z,175
2017-06-04T08:19:29.429Z,180
2017-06-04T08:20:10.320Z,190
2017-06-04T08:20:51.215Z,195
2017-06-04T08:21:32.103Z,200
2017-06-04T08:22:12.978Z,205
2017-06-04T08:22:53.863Z,205
2017-06-04T08:23:34.765Z,205
2017-06-04T08:24:15.643Z,200
2017-06-04T08:24:56.519Z,195
2017-06-04T08:25:37.402Z,175
2017-06-04T08:26:18.301Z,170
2017-06-04T08:26:59.175Z,170
2017-06-04T08:27:40.067Z,175
2017-06-04T08:28:20.976Z,180
2017-06-04T08:29:01.858Z,190
2017-06-04T08:31:00.610Z,230
2017-06-04T08:31:41.491Z,245
2017-06-04T08:32:22.362Z,255
2017-06-04T08:33:03.253Z,265
2017-06-04T08:33:44.131Z,275
2017-06-04T08:34:25.013Z,280
2017-06-04T08:35:05.900Z,280
2017-06-04T08:35:46.782Z,280
2017-06-04T08:36:27.665Z,285
2017-06-04T08:37:08.551Z,285
2017-06-04T08:37:49.461Z,285
2017-06-04T08:38:30.344Z,275
2017-06-04T08:39:11.229Z,290
2017-06-04T08:39:52.135Z,295
2017-06-04T08:40:33.038Z,290
2017-06-04T08:41:13.915Z,295
2017-06-04T08:41:54.800Z,300
2017-06-04T08:42:35.689Z,305
2017-06-04T08:43:16.576Z,305
2017-06-04T08:43:57.460Z,310
2017-06-04T08:44:38.345Z,315
2017-06-04T08:45:19.239Z,315
2017-06-04T08:46:00.135Z,320
2017-06-04T08:46:41.043Z,330
2017-06-04T08:47:21.929Z,335
2017-06-04T08:48:02.811Z,330
2017-06-04T08:48:43.695Z,345
2017-06-04T08:49:24.586Z,345
2017-06-04T08:50:05.479Z,350
2017-06-04T08:50:46.368Z,365
2017-06-04T08:51:27.259Z,365
2017-06-04T08:52:08.141Z,375
2017-06-04T08:52:49.050Z,380
2017-06-04T08:53:29.949Z,390
2017-06-04T08:54:10.830Z,390
2017-06-04T08:54:51.718Z,390
2017-06-04T08:55:32.606Z,400
2017-06-04T08:56:13.489Z,400
2017-06-04T08:56:54.378Z,400
2017-06-04T08:57:35.263Z,400
2017-06-04T08:58:16.185Z,395
2017-06-04T08:58:57.297Z,385
2017-06-04T08:59:38.746Z,365
2017-06-04T09:00:20.149Z,335
2017-06-04T09:01:01.575Z,315
2017-06-04T09:01:42.967Z,295
2017-06-04T09:02:24.385Z,280
2017-06-04T09:03:05.845Z,270
2017-06-04T09:03:47.271Z,260
2017-06-04T09:04:28.691Z,250
2017-06-04T09:05:10.104Z,240
2017-06-04T09:05:51.514Z,225
2017-06-04T09:06:32.940Z,215
2017-06-04T09:07:14.330Z,195
2017-06-04T09:07:55.692Z,160
2017-06-04T09:08:37.047Z,150
2017-06-04T09:09:18.403Z,165
2017-06-04T09:09:59.779Z,175
2017-06-04T09:10:41.148Z,170
2017-06-04T09:11:22.518Z,170
2017-06-04T09:12:03.888Z,170
2017-06-04T09:12:45.252Z,165
2017-06-04T09:13:26.620Z,160
2017-06-04T09:14:07.972Z,190
2017-06-04T09:14:49.328Z,215
2017-06-04T09:15:30.702Z,215
2017-06-04T09:16:12.053Z,215
2017-06-04T09:16:53.417Z,205
2017-06-04T09:17:34.802Z,185
2017-06-04T09:18:16.156Z,185
2017-06-04T09:18:57.491Z,245
2017-06-04T09:19:38.809Z,250
2017-06-04T09:20:20.088Z,255
2017-06-04T09:21:01.432Z,255
2017-06-04T09:21:42.716Z,265
2017-06-04T09:22:24.002Z,265
2017-06-04T09:23:05.273Z,240
2017-06-04T09:23:46.552Z,215
2017-06-04T09:24:27.827Z,185
2017-06-04T09:25:09.091Z,170
2017-06-04T09:25:50.351Z,160
2017-06-04T09:26:31.592Z,135
2017-06-04T09:27:12.808Z,135
2017-06-04T09:27:54.031Z,120
2017-06-04T09:28:35.265Z,100
2017-06-04T09:29:16.505Z,80
2017-06-04T09:29:57.715Z,70
2017-06-04T09:30:38.887Z,75
2017-06-04T09:31:19.992Z,75
2017-06-04T09:32:01.057Z,60
2017-06-04T09:32:42.062Z,45
2017-06-04T09:33:23.071Z,30
2017-06-04T09:34:04.081Z,30
2017-06-04T09:34:45.103Z,40
2017-06-04T09:35:26.143Z,40
2017-06-04T09:36:07.155Z,40
2017-06-04T09:36:48.171Z,45
2017-06-04T09:37:29.181Z,50
2017-06-04T09:38:10.199Z,60
2017-06-04T09:38:51.221Z,65
2017-06-04T09:39:32.225Z,70
2017-06-04T09:40:13.220Z,70
2017-06-04T09:40:54.215Z,80
2017-06-04T09:41:35.207Z,90
2017-06-04T09:42:16.203Z,95
2017-06-04T09:42:57.209Z,105
2017-06-04T09:43:38.211Z,115
2017-06-04T09:44:19.235Z,125
2017-06-04T09:45:00.212Z,125
2017-06-04T09:45:41.234Z,130
2017-06-04T09:46:22.228Z,140
2017-06-04T09:47:03.205Z,120
2017-06-04T09:47:44.237Z,105
2017-06-04T09:48:25.258Z,135
2017-06-04T09:49:06.254Z,135